Time;durP1;ratioP1;P1;durP2;ratioP2;P2;SDS_P1;SDS_P2;PMS_P1;PMS_P2;Temp;Humidity;BMP_temperature;BMP_pressure;BME280_temperature;BME280_humidity;BME280_pressure;Samples;Min_cycle;Max_cycle;Signal;HPM_P1;HPM_P2
2023/09/22 00:02:26;;;;;;;;;;;;;;;22.41;67.92;96893.13;590226;240;68788;-69
2023/09/22 00:04:53;;;;;;;;;;;;;;;22.41;68.19;96898.48;590197;240;62941;-68
2023/09/22 00:07:21;;;;;;;;;;;;;;;22.41;68.11;96901.16;590204;240;69103;-68
2023/09/22 00:09:49;;;;;;;;;;;;;;;22.42;68.14;96907.31;590221;240;68834;-68
2023/09/22 00:12:17;;;;;;;;;;;;;;;22.42;67.93;96905.42;590218;240;62965;-68
2023/09/22 00:14:45;;;;;;;;;;;;;;;22.42;68.19;96908.09;590220;240;68775;-69
2023/09/22 00:17:12;;;;;;;;;;;;;;;22.41;68.05;96898.48;590211;240;66715;-69
2023/09/22 00:19:40;;;;;;;;;;;;;;;22.42;68.13;96910.78;590222;240;65246;-69
2023/09/22 00:22:07;;;;;;;;;;;;;;;22.43;68.22;96911.60;590260;240;68840;-69
2023/09/22 00:24:35;;;;;;;;;;;;;;;22.41;68.03;96913.75;590208;240;68687;-68
2023/09/22 00:27:02;;;;;;;;;;;;;;;22.40;68.00;96912.96;590213;240;64884;-69
2023/09/22 00:29:30;;;;;;;;;;;;;;;22.41;67.98;96900.37;590198;240;67288;-69
2023/09/22 00:31:57;;;;;;;;;;;;;;;22.41;68.00;96908.40;590176;240;66524;-68
2023/09/22 00:34:25;;;;;;;;;;;;;;;22.40;67.92;96912.96;590247;240;65170;-68
2023/09/22 00:36:55;;;;;;;;;;;;;;;22.41;68.13;96900.37;590165;240;68662;-68
2023/09/22 00:39:22;;;;;;;;;;;;;;;22.42;68.25;96904.63;590199;240;67543;-67
2023/09/22 00:41:49;;;;;;;;;;;;;;;22.41;68.05;96892.34;590200;240;62804;-66
2023/09/22 00:44:17;;;;;;;;;;;;;;;22.42;68.03;96909.98;590231;240;66546;-66
2023/09/22 00:46:44;;;;;;;;;;;;;;;22.41;67.70;96908.40;590238;240;68305;-66
2023/09/22 00:49:12;;;;;;;;;;;;;;;22.42;68.13;96901.95;590250;240;65025;-66
2023/09/22 00:51:40;;;;;;;;;;;;;;;22.41;68.33;96898.48;590197;240;68768;-66
2023/09/22 00:54:09;;;;;;;;;;;;;;;22.41;68.33;96897.69;590177;240;69720;-66
2023/09/22 00:56:37;;;;;;;;;;;;;;;22.41;68.34;96898.48;590220;240;63088;-66
2023/09/22 00:59:05;;;;;;;;;;;;;;;22.41;67.99;96898.48;590216;240;66487;-66
2023/09/22 01:01:32;;;;;;;;;;;;;;;22.41;67.85;96909.19;590242;240;68580;-66
2023/09/22 01:04:00;;;;;;;;;;;;;;;22.42;68.23;96908.09;590175;240;65047;-67
2023/09/22 01:06:28;;;;;;;;;;;;;;;22.42;68.34;96902.75;590223;240;68898;-66
2023/09/22 01:08:56;;;;;;;;;;;;;;;22.42;68.36;96896.59;590182;240;66513;-66
2023/09/22 01:11:24;;;;;;;;;;;;;;;22.41;68.11;96903.05;590226;240;62602;-66
2023/09/22 01:13:51;;;;;;;;;;;;;;;22.40;68.16;96907.61;590273;240;68677;-66
2023/09/22 01:16:19;;;;;;;;;;;;;;;22.40;68.32;96904.93;590155;240;68601;-66
2023/09/22 01:18:47;;;;;;;;;;;;;;;22.41;68.39;96903.05;590182;240;64979;-66
2023/09/22 01:21:14;;;;;;;;;;;;;;;22.40;68.37;96899.58;590221;240;66758;-66
2023/09/22 01:23:42;;;;;;;;;;;;;;;22.41;68.39;96884.30;590195;240;66486;-66
2023/09/22 01:26:11;;;;;;;;;;;;;;;22.40;68.11;96891.54;590263;240;65127;-66
2023/09/22 01:28:38;;;;;;;;;;;;;;;22.41;68.26;96892.34;590196;240;68676;-66
2023/09/22 01:31:06;;;;;;;;;;;;;;;22.41;68.33;96893.13;590156;240;68767;-66
2023/09/22 01:33:34;;;;;;;;;;;;;;;22.42;68.39;96893.92;590240;240;63955;-66
2023/09/22 01:36:01;;;;;;;;;;;;;;;22.41;68.05;96903.84;590220;240;65852;-66
2023/09/22 01:38:28;;;;;;;;;;;;;;;22.41;68.13;96903.84;590211;240;66103;-66
2023/09/22 01:40:58;;;;;;;;;;;;;;;22.41;68.31;96911.87;590280;240;65273;-66
2023/09/22 01:43:25;;;;;;;;;;;;;;;22.41;68.20;96906.52;590182;240;69329;-66
2023/09/22 01:45:53;;;;;;;;;;;;;;;22.41;68.02;96903.84;590205;240;68526;-66
2023/09/22 01:48:21;;;;;;;;;;;;;;;22.41;68.28;96903.84;590216;240;65866;-66
2023/09/22 01:50:49;;;;;;;;;;;;;;;22.41;68.36;96893.13;590233;240;69273;-66
2023/09/22 01:53:17;;;;;;;;;;;;;;;22.41;68.07;96909.19;590247;240;68444;-66
2023/09/22 01:55:46;;;;;;;;;;;;;;;22.42;68.22;96907.31;590223;240;63732;-66
2023/09/22 01:58:14;;;;;;;;;;;;;;;22.41;68.07;96908.40;590206;240;68352;-66
2023/09/22 02:00:41;;;;;;;;;;;;;;;22.41;68.16;96903.84;590219;240;68313;-66
2023/09/22 02:03:10;;;;;;;;;;;;;;;22.42;68.18;96912.66;590211;240;64917;-66
2023/09/22 02:05:37;;;;;;;;;;;;;;;22.42;68.02;96909.98;590244;240;69005;-66
2023/09/22 02:08:05;;;;;;;;;;;;;;;22.42;68.09;96915.34;590179;240;68857;-66
2023/09/22 02:10:33;;;;;;;;;;;;;;;22.42;68.35;96905.42;590192;240;65054;-66
2023/09/22 02:13:02;;;;;;;;;;;;;;;22.41;68.33;96897.69;590186;240;69187;-66
2023/09/22 02:15:29;;;;;;;;;;;;;;;22.41;68.28;96893.13;590190;240;68824;-66
2023/09/22 02:17:58;;;;;;;;;;;;;;;22.42;68.36;96885.89;590249;240;62788;-66
2023/09/22 02:20:25;;;;;;;;;;;;;;;22.41;68.36;96877.06;590174;240;69642;-66
2023/09/22 02:22:57;;;;;;;;;;;;;;;22.41;68.38;96886.98;590182;240;68531;-66
2023/09/22 02:25:25;;;;;;;;;;;;;;;22.41;68.19;96903.05;590203;240;65022;-66
2023/09/22 02:27:53;;;;;;;;;;;;;;;22.41;68.31;96908.40;590177;240;68296;-66
2023/09/22 02:30:21;;;;;;;;;;;;;;;22.39;68.29;96903.31;590196;240;68693;-66
2023/09/22 02:32:50;;;;;;;;;;;;;;;22.39;68.53;96912.14;589414;240;65059;-66
2023/09/22 02:35:18;;;;;;;;;;;;;;;22.37;68.54;96908.97;589307;240;69140;-66
2023/09/22 02:37:46;;;;;;;;;;;;;;;22.38;68.42;96915.91;589278;240;69513;-66
2023/09/22 02:40:14;;;;;;;;;;;;;;;22.39;68.45;96917.49;589303;240;65213;-66
2023/09/22 02:42:48;;;;;;;;;;;;;;;22.39;68.34;96922.84;589329;240;69031;-66
2023/09/22 02:45:12;;;;;;;;;;;;;;;22.39;68.34;96925.52;589132;240;68532;-66
2023/09/22 02:47:41;;;;;;;;;;;;;;;22.40;68.49;96931.70;589317;240;62712;-66
2023/09/22 02:50:10;;;;;;;;;;;;;;;22.39;68.34;96930.88;589321;240;66721;-68
2023/09/22 02:52:42;;;;;;;;;;;;;;;22.39;68.37;96936.23;589295;240;66773;-68
2023/09/22 02:55:11;;;;;;;;;;;;;;;22.39;68.32;96944.27;589097;240;65242;-68
2023/09/22 02:57:39;;;;;;;;;;;;;;;22.40;68.36;96945.09;589350;240;68948;-68
2023/09/22 03:00:18;;;;;;;;;;;;;;;22.39;68.28;96944.27;589354;240;66442;-66
2023/09/22 03:02:43;;;;;;;;;;;;;;;22.39;68.37;96949.63;589070;240;65503;-66
2023/09/22 03:05:14;;;;;;;;;;;;;;;22.40;68.39;96945.09;589362;240;68832;-66
2023/09/22 03:07:41;;;;;;;;;;;;;;;22.39;68.22;96946.95;589335;240;69159;-66
2023/09/22 03:10:10;;;;;;;;;;;;;;;22.38;68.17;96948.03;589334;240;65728;-66
2023/09/22 03:12:38;;;;;;;;;;;;;;;22.39;68.36;96949.63;589388;240;66815;-66
2023/09/22 03:15:09;;;;;;;;;;;;;;;22.40;68.49;96942.41;589310;240;68535;-66
2023/09/22 03:17:37;;;;;;;;;;;;;;;22.39;68.54;96930.88;589335;240;65480;-66
2023/09/22 03:20:12;;;;;;;;;;;;;;;22.38;68.45;96918.59;589320;240;67627;-66
2023/09/22 03:22:38;;;;;;;;;;;;;;;22.38;68.22;96918.59;589230;240;66558;-66
2023/09/22 03:25:06;;;;;;;;;;;;;;;22.39;68.51;96917.49;589385;240;65054;-66
2023/09/22 03:27:37;;;;;;;;;;;;;;;22.39;68.68;96903.31;589318;240;66523;-68
2023/09/22 03:30:06;;;;;;;;;;;;;;;22.38;68.33;96896.38;589334;240;66057;-68
2023/09/22 03:32:35;;;;;;;;;;;;;;;22.38;68.40;96905.20;589981;240;63280;-68
2023/09/22 03:35:08;;;;;;;;;;;;;;;22.38;68.56;96907.08;590222;240;46102;-68
2023/09/22 03:37:36;;;;;;;;;;;;;;;22.37;68.37;96919.67;590206;240;69179;-66
2023/09/22 03:40:14;;;;;;;;;;;;;;;22.38;68.53;96926.62;590263;240;63018;-66
2023/09/22 03:42:43;;;;;;;;;;;;;;;22.39;68.39;96935.44;590227;240;65927;-66
2023/09/22 03:45:11;;;;;;;;;;;;;;;22.38;68.33;96931.18;590205;240;68828;-66
2023/09/22 03:47:39;;;;;;;;;;;;;;;22.38;68.44;96925.83;590211;240;65245;-66
2023/09/22 03:50:07;;;;;;;;;;;;;;;22.38;68.40;96921.27;590214;240;66945;-66
2023/09/22 03:52:36;;;;;;;;;;;;;;;22.38;68.49;96918.59;590223;240;68769;-66
2023/09/22 03:55:04;;;;;;;;;;;;;;;22.39;68.27;96927.41;590210;240;63052;-66
2023/09/22 03:57:31;;;;;;;;;;;;;;;22.38;68.32;96925.83;590199;240;68865;-66
2023/09/22 03:59:59;;;;;;;;;;;;;;;22.39;68.24;96922.05;590215;240;68580;-68
2023/09/22 04:02:31;;;;;;;;;;;;;;;22.38;68.35;96923.94;590221;240;65002;-68
2023/09/22 04:04:57;;;;;;;;;;;;;;;22.38;68.32;96937.33;590049;240;66576;-68
2023/09/22 04:07:24;;;;;;;;;;;;;;;22.39;68.41;96938.91;590219;240;68775;-68
2023/09/22 04:09:52;;;;;;;;;;;;;;;22.39;68.32;96952.30;590197;240;65775;-68
2023/09/22 04:12:20;;;;;;;;;;;;;;;22.39;68.34;96956.86;590207;240;68834;-68
2023/09/22 04:14:48;;;;;;;;;;;;;;;22.39;68.38;96959.54;590233;240;69044;-68
2023/09/22 04:17:15;;;;;;;;;;;;;;;22.38;68.59;96968.66;590205;240;65125;-68
2023/09/22 04:19:43;;;;;;;;;;;;;;;22.37;68.76;96962.52;590224;240;68628;-68
2023/09/22 04:22:12;;;;;;;;;;;;;;;22.39;68.57;96970.25;590230;240;68434;-68
2023/09/22 04:24:47;;;;;;;;;;;;;;;22.37;68.57;96973.23;590218;240;64878;-68
2023/09/22 04:27:09;;;;;;;;;;;;;;;22.37;68.62;96978.58;589922;240;68774;-69
2023/09/22 04:29:36;;;;;;;;;;;;;;;22.38;68.51;96982.84;590236;240;68443;-68
2023/09/22 04:32:07;;;;;;;;;;;;;;;22.38;68.42;96990.08;590198;240;64891;-68
2023/09/22 04:34:35;;;;;;;;;;;;;;;22.38;68.49;96990.08;590208;240;68677;-68
2023/09/22 04:37:04;;;;;;;;;;;;;;;22.38;68.59;96996.23;590192;240;66722;-68
2023/09/22 04:39:32;;;;;;;;;;;;;;;22.38;68.36;96996.23;590216;240;65076;-68
2023/09/22 04:41:59;;;;;;;;;;;;;;;22.39;68.34;96994.34;590211;240;68788;-69
2023/09/22 04:44:27;;;;;;;;;;;;;;;22.38;68.41;96992.77;590248;240;68648;-68
2023/09/22 04:46:54;;;;;;;;;;;;;;;22.39;68.47;96997.82;590193;240;64824;-68
2023/09/22 04:49:22;;;;;;;;;;;;;;;22.38;68.60;96996.23;590197;240;66518;-68
2023/09/22 04:51:51;;;;;;;;;;;;;;;22.39;68.44;96986.31;590211;240;68700;-68
2023/09/22 04:54:19;;;;;;;;;;;;;;;22.38;68.34;96988.20;590196;240;63054;-68
2023/09/22 04:56:46;;;;;;;;;;;;;;;22.38;68.25;96990.87;590254;240;68378;-68
2023/09/22 04:59:16;;;;;;;;;;;;;;;22.38;68.42;96985.52;590231;240;68513;-68
2023/09/22 05:01:43;;;;;;;;;;;;;;;22.39;68.64;96980.96;590164;240;62821;-69
2023/09/22 05:04:11;;;;;;;;;;;;;;;22.37;68.75;96989.30;590223;240;69285;-69
2023/09/22 05:06:45;;;;;;;;;;;;;;;22.38;68.63;96990.87;590188;240;68563;-68
2023/09/22 05:09:09;;;;;;;;;;;;;;;22.37;68.65;96986.61;590028;240;66089;-68
2023/09/22 05:11:38;;;;;;;;;;;;;;;22.38;68.61;96985.52;590238;240;68827;-69
2023/09/22 05:14:06;;;;;;;;;;;;;;;22.38;68.42;96980.17;590190;240;68898;-68
2023/09/22 05:16:33;;;;;;;;;;;;;;;22.38;68.47;96982.05;590200;240;65080;-68
2023/09/22 05:19:01;;;;;;;;;;;;;;;22.38;68.52;96985.52;590226;240;68835;-68
2023/09/22 05:21:28;;;;;;;;;;;;;;;22.38;68.51;96976.70;590180;240;68584;-68
2023/09/22 05:23:56;;;;;;;;;;;;;;;22.37;68.33;96977.76;590242;240;62698;-68
2023/09/22 05:26:23;;;;;;;;;;;;;;;22.38;68.34;96980.17;590134;240;66375;-68
2023/09/22 05:28:51;;;;;;;;;;;;;;;22.38;68.34;96979.38;590190;240;68682;-68
2023/09/22 05:31:19;;;;;;;;;;;;;;;22.38;68.31;96974.81;590152;240;65072;-68
2023/09/22 05:33:46;;;;;;;;;;;;;;;22.39;68.28;96979.08;590168;240;68980;-68
2023/09/22 05:36:14;;;;;;;;;;;;;;;22.38;68.21;96980.17;590232;240;68795;-68
2023/09/22 05:38:42;;;;;;;;;;;;;;;22.39;68.47;96975.61;590164;240;65050;-69
2023/09/22 05:41:09;;;;;;;;;;;;;;;22.38;68.47;96971.34;590236;240;69538;-69
2023/09/22 05:43:38;;;;;;;;;;;;;;;22.39;68.40;96970.25;590240;240;67984;-68
2023/09/22 05:46:07;;;;;;;;;;;;;;;22.38;68.35;96974.81;590203;240;65098;-69
2023/09/22 05:48:34;;;;;;;;;;;;;;;22.39;68.39;96971.05;590267;240;68575;-68
2023/09/22 05:51:02;;;;;;;;;;;;;;;22.38;68.30;96964.10;590201;240;68566;-68
2023/09/22 05:53:30;;;;;;;;;;;;;;;22.39;68.48;96965.69;590174;240;63815;-69
2023/09/22 05:56:07;;;;;;;;;;;;;;;22.38;68.51;96963.31;590221;240;68736;-68
2023/09/22 05:58:35;;;;;;;;;;;;;;;22.38;68.31;96966.78;590196;240;66655;-68
2023/09/22 06:01:10;;;;;;;;;;;;;;;22.38;68.28;96969.45;590182;240;64861;-68
2023/09/22 06:03:39;;;;;;;;;;;;;;;22.38;68.48;96966.78;589963;239;69407;-67
2023/09/22 06:06:08;;;;;;;;;;;;;;;22.38;68.53;96974.81;590144;240;69760;-67
2023/09/22 06:08:39;;;;;;;;;;;;;;;22.33;68.06;96974.85;589755;240;65095;-67
2023/09/22 06:11:08;;;;;;;;;;;;;;;22.28;68.63;96974.89;590107;240;68427;-65
2023/09/22 06:13:35;;;;;;;;;;;;;;;22.23;68.87;96968.77;590165;240;68938;-66
2023/09/22 06:16:04;;;;;;;;;;;;;;;22.19;68.76;96971.22;590061;240;64772;-67
2023/09/22 06:18:32;;;;;;;;;;;;;;;22.16;68.33;96983.25;590159;240;66973;-68
2023/09/22 06:21:00;;;;;;;;;;;;;;;22.08;66.59;96975.02;590183;240;66380;-68
2023/09/22 06:23:28;;;;;;;;;;;;;;;22.08;68.58;96983.05;590137;240;65310;-68
2023/09/22 06:25:57;;;;;;;;;;;;;;;22.06;69.25;96967.27;590159;240;68675;-68
2023/09/22 06:28:25;;;;;;;;;;;;;;;22.04;69.36;96979.32;590076;240;68340;-68
2023/09/22 06:30:53;;;;;;;;;;;;;;;22.02;68.10;96973.47;590050;240;62686;-68
2023/09/22 06:33:20;;;;;;;;;;;;;;;22.02;69.55;96973.47;589342;240;66453;-68
2023/09/22 06:35:49;;;;;;;;;;;;;;;22.00;69.87;96970.27;589202;240;66441;-67
2023/09/22 06:38:17;;;;;;;;;;;;;;;22.00;69.79;96979.09;588976;240;62769;-68
2023/09/22 06:40:45;;;;;;;;;;;;;;;21.99;69.92;96976.67;589250;240;68625;-69
2023/09/22 06:43:12;;;;;;;;;;;;;;;21.97;69.70;96974.30;589350;240;68911;-68
2023/09/22 06:45:41;;;;;;;;;;;;;;;21.97;70.27;96982.32;589220;240;65171;-67
2023/09/22 06:48:09;;;;;;;;;;;;;;;21.95;67.00;96984.47;589287;240;66523;-68
2023/09/22 06:50:37;;;;;;;;;;;;;;;21.99;70.12;96984.70;589296;240;67461;-68
2023/09/22 06:53:05;;;;;;;;;;;;;;;21.99;70.44;96988.20;589199;240;65247;-67
2023/09/22 06:55:33;;;;;;;;;;;;;;;22.00;70.44;96980.97;589345;240;68847;-66
2023/09/22 06:58:01;;;;;;;;;;;;;;;22.00;70.69;96984.44;589269;240;67209;-67
2023/09/22 07:00:29;;;;;;;;;;;;;;;22.01;70.93;96979.88;589243;240;65080;-68
2023/09/22 07:02:56;;;;;;;;;;;;;;;22.02;70.96;96984.17;589298;240;66717;-69
2023/09/22 07:05:24;;;;;;;;;;;;;;;22.02;70.95;96982.30;589234;240;69292;-68
2023/09/22 07:07:52;;;;;;;;;;;;;;;22.01;71.33;96991.37;589314;240;63009;-68
2023/09/22 07:10:20;;;;;;;;;;;;;;;22.00;71.08;96980.97;590759;238;66655;-68
2023/09/22 07:12:48;;;;;;;;;;;;;;;21.99;70.82;96992.73;592049;238;69442;-68
2023/09/22 07:15:16;;;;;;;;;;;;;;;21.97;71.21;96995.70;591265;240;64953;-67
2023/09/22 07:17:44;;;;;;;;;;;;;;;21.97;71.30;96994.91;591086;238;66543;-67
2023/09/22 07:20:13;;;;;;;;;;;;;;;21.97;71.42;96990.34;594415;238;68667;-68
2023/09/22 07:22:42;;;;;;;;;;;;;;;21.96;71.53;96991.41;591305;240;63110;-68
2023/09/22 07:25:11;;;;;;;;;;;;;;;21.95;71.53;96992.49;591243;240;68567;-68
2023/09/22 07:27:39;;;;;;;;;;;;;;;21.94;71.38;96993.58;591180;240;68578;-67
2023/09/22 07:30:10;;;;;;;;;;;;;;;21.93;71.63;96995.47;591251;240;62523;-68
2023/09/22 07:32:38;;;;;;;;;;;;;;;21.93;71.74;96995.47;587600;239;68901;-68
2023/09/22 07:35:07;;;;;;;;;;;;;;;21.93;71.81;96991.97;586638;242;68778;-68
2023/09/22 07:37:34;;;;;;;;;;;;;;;21.91;71.76;96986.11;586597;242;63018;-67
2023/09/22 07:40:08;;;;;;;;;;;;;;;21.92;71.83;96980.47;586654;242;68890;-68
2023/09/22 07:42:32;;;;;;;;;;;;;;;21.91;72.00;96981.55;586262;242;68554;-68
2023/09/22 07:45:00;;;;;;;;;;;;;;;21.91;71.92;96986.11;586650;242;65891;-67
2023/09/22 07:47:27;;;;;;;;;;;;;;;21.91;71.95;96986.11;586731;242;68807;-68
2023/09/22 07:49:55;;;;;;;;;;;;;;;21.90;72.10;96977.27;586689;242;68511;-68
2023/09/22 07:52:22;;;;;;;;;;;;;;;21.90;72.22;96971.91;586655;242;62781;-68
2023/09/22 07:54:50;;;;;;;;;;;;;;;21.89;72.20;96972.20;586678;242;68879;-68
2023/09/22 07:57:18;;;;;;;;;;;;;;;21.89;72.22;96973.00;586608;242;66445;-68
2023/09/22 07:59:45;;;;;;;;;;;;;;;21.89;72.09;96978.35;586674;242;65249;-67
2023/09/22 08:02:13;;;;;;;;;;;;;;;21.89;72.23;96973.00;586745;242;69597;-68
2023/09/22 08:04:40;;;;;;;;;;;;;;;21.90;72.28;96971.12;586596;242;68551;-68
2023/09/22 08:07:08;;;;;;;;;;;;;;;21.89;72.28;96967.65;586631;242;63670;-68
2023/09/22 08:09:35;;;;;;;;;;;;;;;21.89;72.39;96972.20;586218;242;66348;-68
2023/09/22 08:12:04;;;;;;;;;;;;;;;21.88;72.37;96963.39;586364;242;66219;-68
2023/09/22 08:14:31;;;;;;;;;;;;;;;21.88;72.38;96965.23;586391;242;65128;-68
2023/09/22 08:16:59;;;;;;;;;;;;;;;21.87;72.33;96969.80;586330;242;68714;-69
2023/09/22 08:19:27;;;;;;;;;;;;;;;21.87;72.17;96961.77;586252;242;69054;-69
2023/09/22 08:21:54;;;;;;;;;;;;;;;21.88;72.14;96957.21;586376;242;64876;-68
2023/09/22 08:24:21;;;;;;;;;;;;;;;21.88;72.29;96955.36;586349;242;68853;-68
2023/09/22 08:26:49;;;;;;;;;;;;;;;21.88;72.71;96944.66;586739;242;68694;-69
2023/09/22 08:29:17;;;;;;;;;;;;;;;21.88;72.87;96949.19;586691;242;62745;-65
2023/09/22 08:31:44;;;;;;;;;;;;;;;21.88;72.82;96951.86;586591;239;68679;-66
2023/09/22 08:34:12;;;;;;;;;;;;;;;21.87;72.44;96945.72;586706;242;69568;-66
2023/09/22 08:36:39;;;;;;;;;;;;;;;21.88;71.31;96943.84;586655;242;64891;-69
2023/09/22 08:39:08;;;;;;;;;;;;;;;21.89;72.15;96945.45;586336;242;69066;-68
2023/09/22 08:41:38;;;;;;;;;;;;;;;21.88;72.22;96947.34;586332;242;68998;-68
2023/09/22 08:44:06;;;;;;;;;;;;;;;21.88;72.52;96946.52;586327;242;65082;-68
2023/09/22 08:46:35;;;;;;;;;;;;;;;21.87;72.46;96948.39;586307;242;69307;-68
2023/09/22 08:49:03;;;;;;;;;;;;;;;21.87;72.46;96943.05;586322;242;68755;-67
2023/09/22 08:51:31;;;;;;;;;;;;;;;21.87;72.45;96942.25;586341;242;65121;-67
2023/09/22 08:53:59;;;;;;;;;;;;;;;21.87;72.52;96942.25;586308;242;66790;-67
2023/09/22 08:56:27;;;;;;;;;;;;;;;21.87;72.59;96940.37;586311;242;68764;-68
2023/09/22 08:58:55;;;;;;;;;;;;;;;21.87;72.70;96937.69;586271;242;65006;-68
2023/09/22 09:01:24;;;;;;;;;;;;;;;21.87;72.71;96940.37;586430;242;66541;-68
2023/09/22 09:03:51;;;;;;;;;;;;;;;21.87;72.79;96931.55;586372;242;68737;-68
2023/09/22 09:06:20;;;;;;;;;;;;;;;21.88;71.78;96927.78;586442;242;65914;-66
2023/09/22 09:09:04;;;;;;;;;;;;;;;21.87;67.77;96928.87;586361;242;68780;-66
2023/09/22 09:11:32;;;;;;;;;;;;;;;21.89;69.28;96924.05;586348;242;66539;-66
2023/09/22 09:14:00;;;;;;;;;;;;;;;21.90;68.97;96921.08;586406;242;64791;-66
2023/09/22 09:16:30;;;;;;;;;;;;;;;21.90;70.56;96920.28;586312;242;68749;-66
2023/09/22 09:19:00;;;;;;;;;;;;;;;21.89;70.83;96918.70;586331;242;75239;-66
2023/09/22 09:21:27;;;;;;;;;;;;;;;21.89;71.26;96914.14;584793;242;64637;-65
2023/09/22 09:23:56;;;;;;;;;;;;;;;21.88;71.43;96912.55;586337;242;68411;-65
2023/09/22 09:26:24;;;;;;;;;;;;;;;21.88;71.57;96906.38;586343;242;68483;-65
2023/09/22 09:28:52;;;;;;;;;;;;;;;21.87;71.44;96899.44;586397;242;62391;-66
2023/09/22 09:31:20;;;;;;;;;;;;;;;21.87;71.37;96897.56;589175;237;68690;-66
2023/09/22 09:33:54;;;;;;;;;;;;;;;21.87;71.23;96896.77;597572;237;69074;-66
2023/09/22 09:36:21;;;;;;;;;;;;;;;21.87;71.25;96900.23;597494;237;65228;-67
2023/09/22 09:38:49;;;;;;;;;;;;;;;21.87;71.34;96888.74;597546;237;66341;-67
2023/09/22 09:41:18;;;;;;;;;;;;;;;21.87;71.38;96886.86;597455;237;68905;-67
2023/09/22 09:43:46;;;;;;;;;;;;;;;21.87;71.65;96886.86;597547;237;63598;-67
2023/09/22 09:46:15;;;;;;;;;;;;;;;21.87;71.81;96886.06;597596;237;66626;-67
2023/09/22 09:48:44;;;;;;;;;;;;;;;21.87;71.71;96878.84;597621;237;65870;-67
2023/09/22 09:51:13;;;;;;;;;;;;;;;21.87;71.76;96873.48;597583;237;65073;-67
2023/09/22 09:53:44;;;;;;;;;;;;;;;21.87;71.75;96876.16;597550;237;65899;-66
2023/09/22 09:56:15;;;;;;;;;;;;;;;21.87;71.86;96868.13;597581;237;66262;-67
2023/09/22 09:58:45;;;;;;;;;;;;;;;21.87;71.93;96870.81;597555;237;63056;-67
2023/09/22 10:01:13;;;;;;;;;;;;;;;21.86;71.93;96877.25;597584;237;66731;-67
2023/09/22 10:03:42;;;;;;;;;;;;;;;21.86;72.07;96871.90;597568;237;68518;-67
2023/09/22 10:06:12;;;;;;;;;;;;;;;21.86;72.06;96877.25;597594;237;64866;-67
2023/09/22 10:08:39;;;;;;;;;;;;;;;21.87;72.08;96873.48;597588;237;68637;-67
2023/09/22 10:11:08;;;;;;;;;;;;;;;21.87;72.16;96872.69;597597;237;68351;-67
2023/09/22 10:13:36;;;;;;;;;;;;;;;21.86;72.12;96871.11;597587;237;62753;-67
2023/09/22 10:16:08;;;;;;;;;;;;;;;21.86;72.31;96866.55;597560;237;66477;-67
2023/09/22 10:18:55;;;;;;;;;;;;;;;21.87;72.05;96873.48;597551;237;68614;-67
2023/09/22 10:21:32;;;;;;;;;;;;;;;21.87;72.12;96873.48;597507;237;62974;-67
2023/09/22 10:24:15;;;;;;;;;;;;;;;21.86;72.17;96871.90;597552;237;68726;-67
2023/09/22 10:26:57;;;;;;;;;;;;;;;21.86;72.37;96869.22;597568;237;66478;-66
2023/09/22 10:29:35;;;;;;;;;;;;;;;21.87;72.34;96868.13;597565;237;65396;-67
2023/09/22 10:32:23;;;;;;;;;;;;;;;21.87;72.45;96868.13;596399;237;68799;-67
2023/09/22 10:34:53;;;;;;;;;;;;;;;21.86;72.35;96866.55;595535;238;68707;-67
2023/09/22 10:37:24;;;;;;;;;;;;;;;21.85;72.42;96864.97;595528;238;65163;-67
2023/09/22 10:39:58;;;;;;;;;;;;;;;21.87;72.28;96859.31;595547;238;66712;-67
2023/09/22 10:42:27;;;;;;;;;;;;;;;21.86;72.37;96850.50;595525;238;69533;-67
2023/09/22 10:44:56;;;;;;;;;;;;;;;21.86;72.34;96855.05;595526;238;65162;-67
2023/09/22 10:47:24;;;;;;;;;;;;;;;21.86;72.47;96855.05;595476;238;68809;-67
2023/09/22 10:49:51;;;;;;;;;;;;;;;21.85;72.43;96848.91;595559;238;68860;-67
2023/09/22 10:52:19;;;;;;;;;;;;;;;21.86;72.52;96845.14;595481;238;63878;-67
2023/09/22 10:54:47;;;;;;;;;;;;;;;21.86;72.58;96842.47;595523;238;66428;-67
2023/09/22 10:57:16;;;;;;;;;;;;;;;21.87;72.53;96835.23;595499;238;68696;-67
2023/09/22 10:59:44;;;;;;;;;;;;;;;21.86;72.57;96839.80;594997;238;64892;-67
2023/09/22 11:02:13;;;;;;;;;;;;;;;21.87;72.50;96840.59;595547;238;66382;-67
2023/09/22 11:04:41;;;;;;;;;;;;;;;21.87;72.58;96837.91;595238;238;66630;-67
2023/09/22 11:07:11;;;;;;;;;;;;;;;21.87;72.48;96837.91;595528;238;64986;-67
2023/09/22 11:09:39;;;;;;;;;;;;;;;21.87;72.41;96836.03;595536;238;67291;-67
2023/09/22 11:12:06;;;;;;;;;;;;;;;21.87;72.49;96830.68;595501;238;68910;-67
2023/09/22 11:14:34;;;;;;;;;;;;;;;21.87;72.60;96832.56;595517;238;64909;-68
2023/09/22 11:17:02;;;;;;;;;;;;;;;21.88;72.56;96823.45;595527;238;68997;-67
2023/09/22 11:19:30;;;;;;;;;;;;;;;21.87;72.59;96822.66;595506;238;66515;-67
2023/09/22 11:21:59;;;;;;;;;;;;;;;21.87;72.53;96819.19;595535;238;65406;-67
2023/09/22 11:24:27;;;;;;;;;;;;;;;21.87;72.37;96817.30;595546;238;68657;-67
2023/09/22 11:26:56;;;;;;;;;;;;;;;21.87;72.30;96825.33;595520;238;66710;-67
2023/09/22 11:29:24;;;;;;;;;;;;;;;21.88;72.32;96826.12;595271;238;63672;-67
2023/09/22 11:31:56;;;;;;;;;;;;;;;21.88;72.41;96820.77;596526;237;69031;-67
2023/09/22 11:34:24;;;;;;;;;;;;;;;21.88;72.51;96820.77;597585;237;68582;-68
2023/09/22 11:36:52;;;;;;;;;;;;;;;21.88;72.51;96816.24;597572;237;63048;-67
2023/09/22 11:39:34;;;;;;;;;;;;;;;21.89;72.54;96817.03;597561;237;68691;-67
2023/09/22 11:41:59;;;;;;;;;;;;;;;21.88;72.50;96816.24;597349;237;68548;-68
2023/09/22 11:44:26;;;;;;;;;;;;;;;21.88;72.42;96815.42;597555;237;63831;-68
2023/09/22 11:46:54;;;;;;;;;;;;;;;21.88;72.33;96812.75;597595;237;68642;-68
2023/09/22 11:49:21;;;;;;;;;;;;;;;21.88;72.37;96810.07;597567;237;68530;-68
2023/09/22 11:51:59;;;;;;;;;;;;;;;21.88;72.32;96816.24;597537;237;63034;-66
2023/09/22 11:54:28;;;;;;;;;;;;;;;21.88;72.59;96810.89;597558;237;68698;-66
2023/09/22 11:57:03;;;;;;;;;;;;;;;21.89;72.48;96807.13;597628;237;66483;-66
2023/09/22 11:59:34;;;;;;;;;;;;;;;21.88;72.38;96802.87;597317;235;65133;-66
2023/09/22 12:02:04;;;;;;;;;;;;;;;21.89;72.45;96799.10;597496;237;68654;-66
2023/09/22 12:04:32;;;;;;;;;;;;;;;21.88;72.40;96802.87;597569;237;68901;-66
2023/09/22 12:07:01;;;;;;;;;;;;;;;21.88;72.42;96797.52;597572;237;65956;-66
2023/09/22 12:09:28;;;;;;;;;;;;;;;21.89;72.37;96796.42;597610;237;66493;-66
2023/09/22 12:11:56;;;;;;;;;;;;;;;21.89;72.54;96801.78;597579;237;66308;-66
2023/09/22 12:14:23;;;;;;;;;;;;;;;21.90;72.83;96802.57;597573;237;65217;-66
2023/09/22 12:16:56;;;;;;;;;;;;;;;21.90;73.06;96808.71;597564;237;68929;-66
2023/09/22 12:19:21;;;;;;;;;;;;;;;21.89;72.77;96800.98;597326;237;69869;-67
2023/09/22 12:21:49;;;;;;;;;;;;;;;21.90;72.74;96800.69;597590;237;62691;-67
2023/09/22 12:24:17;;;;;;;;;;;;;;;21.90;72.92;96798.02;597640;237;68510;-67
2023/09/22 12:26:46;;;;;;;;;;;;;;;21.91;73.29;96798.83;597556;237;68566;-67
2023/09/22 12:29:16;;;;;;;;;;;;;;;21.91;73.38;96799.63;597529;237;64904;-67
2023/09/22 12:31:44;;;;;;;;;;;;;;;21.89;73.33;96791.08;597566;237;68906;-67
2023/09/22 12:34:12;;;;;;;;;;;;;;;21.90;73.25;96795.33;597541;237;69575;-67
2023/09/22 12:36:39;;;;;;;;;;;;;;;21.90;73.00;96787.31;597602;237;64909;-67
2023/09/22 12:39:10;;;;;;;;;;;;;;;21.91;72.72;96799.63;597578;237;68704;-67
2023/09/22 12:41:36;;;;;;;;;;;;;;;21.89;72.46;96780.38;597453;237;68590;-67
2023/09/22 12:44:04;;;;;;;;;;;;;;;21.90;72.41;96784.63;597542;237;63507;-66
2023/09/22 12:46:31;;;;;;;;;;;;;;;21.89;71.92;96783.05;597572;237;66679;-66
2023/09/22 12:48:59;;;;;;;;;;;;;;;21.91;71.12;96785.45;597603;237;66530;-66
2023/09/22 12:51:26;;;;;;;;;;;;;;;21.92;71.71;96787.83;597573;237;64783;-66
2023/09/22 12:53:55;;;;;;;;;;;;;;;21.93;71.69;96786.77;597556;237;66310;-66
2023/09/22 12:56:22;;;;;;;;;;;;;;;21.93;71.58;96784.09;597549;237;69127;-66